sensor_id;sensor_type;location;lat;lon;timestamp;temperature;humidity
46652;DHT22;32377;52.182;5.398;2023-03-05T00:01:39;4.50;99.90
46652;DHT22;32377;52.182;5.398;2023-03-05T00:04:09;4.50;99.90
46652;DHT22;32377;52.182;5.398;2023-03-05T00:06:35;4.50;99.90
46652;DHT22;32377;52.182;5.398;2023-03-05T00:09:01;4.60;99.90
46652;DHT22;32377;52.182;5.398;2023-03-05T00:11:28;4.60;99.90
46652;DHT22;32377;52.182;5.398;2023-03-05T00:13:59;4.60;99.90
46652;DHT22;32377;52.182;5.398;2023-03-05T00:16:25;4.60;99.90
46652;DHT22;32377;52.182;5.398;2023-03-05T00:18:52;4.50;99.90
46652;DHT22;32377;52.182;5.398;2023-03-05T00:21:31;4.50;99.90
46652;DHT22;32377;52.182;5.398;2023-03-05T00:23:57;4.50;99.90
46652;DHT22;32377;52.182;5.398;2023-03-05T00:26:26;4.50;99.90
46652;DHT22;32377;52.182;5.398;2023-03-05T00:28:53;4.40;99.90
46652;DHT22;32377;52.182;5.398;2023-03-05T00:31:21;4.40;99.90
46652;DHT22;32377;52.182;5.398;2023-03-05T00:33:54;4.30;99.90
46652;DHT22;32377;52.182;5.398;2023-03-05T00:36:21;4.30;99.90
46652;DHT22;32377;52.182;5.398;2023-03-05T00:38:47;4.20;99.90
46652;DHT22;32377;52.182;5.398;2023-03-05T00:41:12;4.20;99.90
46652;DHT22;32377;52.182;5.398;2023-03-05T00:43:38;4.20;99.90
46652;DHT22;32377;52.182;5.398;2023-03-05T00:46:04;4.20;99.90
46652;DHT22;32377;52.182;5.398;2023-03-05T00:48:29;4.10;99.90
46652;DHT22;32377;52.182;5.398;2023-03-05T00:50:55;4.20;99.90
46652;DHT22;32377;52.182;5.398;2023-03-05T00:53:21;4.20;99.90
46652;DHT22;32377;52.182;5.398;2023-03-05T00:55:46;4.10;99.90
46652;DHT22;32377;52.182;5.398;2023-03-05T00:58:12;4.10;99.90
46652;DHT22;32377;52.182;5.398;2023-03-05T01:00:38;4.10;99.90
46652;DHT22;32377;52.182;5.398;2023-03-05T01:03:04;4.10;99.90
46652;DHT22;32377;52.182;5.398;2023-03-05T01:05:30;4.10;99.90
46652;DHT22;32377;52.182;5.398;2023-03-05T01:07:56;4.10;99.90
46652;DHT22;32377;52.182;5.398;2023-03-05T01:10:22;4.20;99.90
46652;DHT22;32377;52.182;5.398;2023-03-05T01:12:53;4.20;99.90
46652;DHT22;32377;52.182;5.398;2023-03-05T01:15:19;4.10;99.90
46652;DHT22;32377;52.182;5.398;2023-03-05T01:17:45;4.10;99.90
46652;DHT22;32377;52.182;5.398;2023-03-05T01:20:13;4.20;99.90
46652;DHT22;32377;52.182;5.398;2023-03-05T01:22:40;4.10;99.90
46652;DHT22;32377;52.182;5.398;2023-03-05T01:25:06;4.20;99.90
46652;DHT22;32377;52.182;5.398;2023-03-05T01:27:32;4.20;99.90
46652;DHT22;32377;52.182;5.398;2023-03-05T01:29:58;4.20;99.90
46652;DHT22;32377;52.182;5.398;2023-03-05T01:32:23;4.10;99.90
46652;DHT22;32377;52.182;5.398;2023-03-05T01:34:49;4.10;99.90
46652;DHT22;32377;52.182;5.398;2023-03-05T01:37:14;4.10;99.90
46652;DHT22;32377;52.182;5.398;2023-03-05T01:39:40;4.20;99.90
46652;DHT22;32377;52.182;5.398;2023-03-05T01:42:06;4.10;99.90
46652;DHT22;32377;52.182;5.398;2023-03-05T01:44:32;4.10;99.90
46652;DHT22;32377;52.182;5.398;2023-03-05T01:46:59;4.10;99.90
46652;DHT22;32377;52.182;5.398;2023-03-05T01:49:39;4.10;99.90
46652;DHT22;32377;52.182;5.398;2023-03-05T01:52:13;4.10;99.90
46652;DHT22;32377;52.182;5.398;2023-03-05T01:54:43;4.10;99.90
46652;DHT22;32377;52.182;5.398;2023-03-05T01:57:14;4.10;99.90
46652;DHT22;32377;52.182;5.398;2023-03-05T01:59:42;4.10;99.90
46652;DHT22;32377;52.182;5.398;2023-03-05T02:02:09;4.00;99.90
46652;DHT22;32377;52.182;5.398;2023-03-05T02:04:49;4.00;99.90
46652;DHT22;32377;52.182;5.398;2023-03-05T02:07:15;4.00;99.90
46652;DHT22;32377;52.182;5.398;2023-03-05T02:09:41;4.00;99.90
46652;DHT22;32377;52.182;5.398;2023-03-05T02:12:08;4.00;99.90
46652;DHT22;32377;52.182;5.398;2023-03-05T02:14:34;4.00;99.90
46652;DHT22;32377;52.182;5.398;2023-03-05T02:17:01;4.00;99.90
46652;DHT22;32377;52.182;5.398;2023-03-05T02:19:27;4.00;99.90
46652;DHT22;32377;52.182;5.398;2023-03-05T02:21:52;4.00;99.90
46652;DHT22;32377;52.182;5.398;2023-03-05T02:24:34;4.00;99.90
46652;DHT22;32377;52.182;5.398;2023-03-05T02:27:02;4.00;99.90
46652;DHT22;32377;52.182;5.398;2023-03-05T02:29:28;4.00;99.90
46652;DHT22;32377;52.182;5.398;2023-03-05T02:31:54;4.00;99.90
46652;DHT22;32377;52.182;5.398;2023-03-05T02:34:21;3.90;99.90
46652;DHT22;32377;52.182;5.398;2023-03-05T02:36:47;3.90;99.90
46652;DHT22;32377;52.182;5.398;2023-03-05T02:39:15;3.90;99.90
46652;DHT22;32377;52.182;5.398;2023-03-05T02:41:41;3.90;99.90
46652;DHT22;32377;52.182;5.398;2023-03-05T02:44:07;3.90;99.90
46652;DHT22;32377;52.182;5.398;2023-03-05T02:46:32;3.90;99.90
46652;DHT22;32377;52.182;5.398;2023-03-05T02:48:58;4.00;99.90
46652;DHT22;32377;52.182;5.398;2023-03-05T02:51:23;4.00;99.90
46652;DHT22;32377;52.182;5.398;2023-03-05T02:53:49;4.00;99.90
46652;DHT22;32377;52.182;5.398;2023-03-05T02:56:15;4.00;99.90
46652;DHT22;32377;52.182;5.398;2023-03-05T02:58:40;3.90;99.90
46652;DHT22;32377;52.182;5.398;2023-03-05T03:01:08;4.00;99.90
46652;DHT22;32377;52.182;5.398;2023-03-05T03:03:34;4.00;99.90
46652;DHT22;32377;52.182;5.398;2023-03-05T03:06:00;4.00;99.90
46652;DHT22;32377;52.182;5.398;2023-03-05T03:08:26;4.00;99.90
46652;DHT22;32377;52.182;5.398;2023-03-05T03:10:51;4.00;99.90
46652;DHT22;32377;52.182;5.398;2023-03-05T03:13:17;4.00;99.90
46652;DHT22;32377;52.182;5.398;2023-03-05T03:15:43;3.90;99.90
46652;DHT22;32377;52.182;5.398;2023-03-05T03:18:08;3.90;99.90
46652;DHT22;32377;52.182;5.398;2023-03-05T03:20:37;3.90;99.90
46652;DHT22;32377;52.182;5.398;2023-03-05T03:23:04;3.90;99.90
46652;DHT22;32377;52.182;5.398;2023-03-05T03:25:29;3.90;99.90
46652;DHT22;32377;52.182;5.398;2023-03-05T03:27:55;3.90;99.90
46652;DHT22;32377;52.182;5.398;2023-03-05T03:30:21;3.80;99.90
46652;DHT22;32377;52.182;5.398;2023-03-05T03:32:46;3.90;99.90
46652;DHT22;32377;52.182;5.398;2023-03-05T03:35:12;3.90;99.90
46652;DHT22;32377;52.182;5.398;2023-03-05T03:37:38;3.90;99.90
46652;DHT22;32377;52.182;5.398;2023-03-05T03:40:05;3.90;99.90
46652;DHT22;32377;52.182;5.398;2023-03-05T03:42:31;3.90;99.90
46652;DHT22;32377;52.182;5.398;2023-03-05T03:44:56;3.90;99.90
46652;DHT22;32377;52.182;5.398;2023-03-05T03:47:22;3.90;99.90
46652;DHT22;32377;52.182;5.398;2023-03-05T03:49:47;3.90;99.90
46652;DHT22;32377;52.182;5.398;2023-03-05T03:52:13;3.90;99.90
46652;DHT22;32377;52.182;5.398;2023-03-05T03:54:38;3.90;99.90
46652;DHT22;32377;52.182;5.398;2023-03-05T03:57:04;3.90;99.90
46652;DHT22;32377;52.182;5.398;2023-03-05T03:59:30;3.90;99.90
46652;DHT22;32377;52.182;5.398;2023-03-05T04:01:55;3.90;99.90
46652;DHT22;32377;52.182;5.398;2023-03-05T04:04:21;3.90;99.90
46652;DHT22;32377;52.182;5.398;2023-03-05T04:06:46;3.80;99.90
46652;DHT22;32377;52.182;5.398;2023-03-05T04:09:12;3.80;99.90
46652;DHT22;32377;52.182;5.398;2023-03-05T04:11:38;3.80;99.90
46652;DHT22;32377;52.182;5.398;2023-03-05T04:14:04;3.70;99.90
46652;DHT22;32377;52.182;5.398;2023-03-05T04:16:30;3.70;99.90
46652;DHT22;32377;52.182;5.398;2023-03-05T04:18:56;3.70;99.90
46652;DHT22;32377;52.182;5.398;2023-03-05T04:21:21;3.70;99.90
46652;DHT22;32377;52.182;5.398;2023-03-05T04:23:47;3.70;99.90
46652;DHT22;32377;52.182;5.398;2023-03-05T04:26:12;3.70;99.90
46652;DHT22;32377;52.182;5.398;2023-03-05T04:28:38;3.70;99.90
46652;DHT22;32377;52.182;5.398;2023-03-05T04:31:04;3.70;99.90
46652;DHT22;32377;52.182;5.398;2023-03-05T04:33:30;3.70;99.90
46652;DHT22;32377;52.182;5.398;2023-03-05T04:35:55;3.80;99.90
46652;DHT22;32377;52.182;5.398;2023-03-05T04:38:21;3.80;99.90
46652;DHT22;32377;52.182;5.398;2023-03-05T04:40:46;3.70;99.90
46652;DHT22;32377;52.182;5.398;2023-03-05T04:43:12;3.70;99.90
46652;DHT22;32377;52.182;5.398;2023-03-05T04:45:39;3.70;99.90
46652;DHT22;32377;52.182;5.398;2023-03-05T04:48:05;3.70;99.90
46652;DHT22;32377;52.182;5.398;2023-03-05T04:50:31;3.60;99.90
46652;DHT22;32377;52.182;5.398;2023-03-05T04:52:57;3.60;99.90
46652;DHT22;32377;52.182;5.398;2023-03-05T04:55:23;3.50;99.90
46652;DHT22;32377;52.182;5.398;2023-03-05T04:59:09;3.50;99.90
46652;DHT22;32377;52.182;5.398;2023-03-05T05:01:34;3.50;99.90
46652;DHT22;32377;52.182;5.398;2023-03-05T05:04:00;3.50;99.90
46652;DHT22;32377;52.182;5.398;2023-03-05T05:06:26;3.50;99.90
46652;DHT22;32377;52.182;5.398;2023-03-05T05:08:52;3.50;99.90
46652;DHT22;32377;52.182;5.398;2023-03-05T05:11:17;3.50;99.90
46652;DHT22;32377;52.182;5.398;2023-03-05T05:13:43;3.50;99.90
46652;DHT22;32377;52.182;5.398;2023-03-05T05:16:09;3.50;99.90
46652;DHT22;32377;52.182;5.398;2023-03-05T05:18:34;3.50;99.90
46652;DHT22;32377;52.182;5.398;2023-03-05T05:21:00;3.50;99.90
46652;DHT22;32377;52.182;5.398;2023-03-05T05:23:26;3.50;99.90
46652;DHT22;32377;52.182;5.398;2023-03-05T05:26:00;3.50;99.90
46652;DHT22;32377;52.182;5.398;2023-03-05T05:28:27;3.40;99.90
46652;DHT22;32377;52.182;5.398;2023-03-05T05:30:52;3.40;99.90
46652;DHT22;32377;52.182;5.398;2023-03-05T05:33:18;3.40;99.90
46652;DHT22;32377;52.182;5.398;2023-03-05T05:35:44;3.40;99.90
46652;DHT22;32377;52.182;5.398;2023-03-05T05:38:10;3.40;99.90
46652;DHT22;32377;52.182;5.398;2023-03-05T05:40:35;3.40;99.90
46652;DHT22;32377;52.182;5.398;2023-03-05T05:43:01;3.40;99.90
46652;DHT22;32377;52.182;5.398;2023-03-05T05:45:27;3.50;99.90
46652;DHT22;32377;52.182;5.398;2023-03-05T05:47:52;3.50;99.90
46652;DHT22;32377;52.182;5.398;2023-03-05T05:50:19;3.50;99.90
46652;DHT22;32377;52.182;5.398;2023-03-05T05:52:44;3.50;99.90
46652;DHT22;32377;52.182;5.398;2023-03-05T05:55:10;3.60;99.90
46652;DHT22;32377;52.182;5.398;2023-03-05T05:57:36;3.60;99.90
46652;DHT22;32377;52.182;5.398;2023-03-05T06:00:04;3.50;99.90
46652;DHT22;32377;52.182;5.398;2023-03-05T06:02:30;3.60;99.90
46652;DHT22;32377;52.182;5.398;2023-03-05T06:04:55;3.50;99.90
46652;DHT22;32377;52.182;5.398;2023-03-05T06:07:21;3.50;99.90
46652;DHT22;32377;52.182;5.398;2023-03-05T06:09:47;3.60;99.90
46652;DHT22;32377;52.182;5.398;2023-03-05T06:12:13;3.50;99.90
46652;DHT22;32377;52.182;5.398;2023-03-05T06:14:38;3.50;99.90
46652;DHT22;32377;52.182;5.398;2023-03-05T06:17:04;3.50;99.90
46652;DHT22;32377;52.182;5.398;2023-03-05T06:19:29;3.50;99.90
46652;DHT22;32377;52.182;5.398;2023-03-05T06:21:55;3.50;99.90
46652;DHT22;32377;52.182;5.398;2023-03-05T06:24:21;3.50;99.90
46652;DHT22;32377;52.182;5.398;2023-03-05T06:26:46;3.50;99.90
46652;DHT22;32377;52.182;5.398;2023-03-05T06:29:13;3.50;99.90
46652;DHT22;32377;52.182;5.398;2023-03-05T06:31:40;3.40;99.90
46652;DHT22;32377;52.182;5.398;2023-03-05T06:34:05;3.40;99.90
46652;DHT22;32377;52.182;5.398;2023-03-05T06:36:31;3.40;99.90
46652;DHT22;32377;52.182;5.398;2023-03-05T06:38:57;3.40;99.90
46652;DHT22;32377;52.182;5.398;2023-03-05T06:41:26;3.40;99.90
46652;DHT22;32377;52.182;5.398;2023-03-05T06:43:52;3.30;99.90
46652;DHT22;32377;52.182;5.398;2023-03-05T06:48:45;3.30;99.90
46652;DHT22;32377;52.182;5.398;2023-03-05T06:51:18;3.40;99.90
46652;DHT22;32377;52.182;5.398;2023-03-05T06:53:44;3.30;99.90
46652;DHT22;32377;52.182;5.398;2023-03-05T06:56:11;3.40;99.90
46652;DHT22;32377;52.182;5.398;2023-03-05T06:58:39;3.40;99.90
46652;DHT22;32377;52.182;5.398;2023-03-05T07:01:05;3.40;99.90
46652;DHT22;32377;52.182;5.398;2023-03-05T07:03:33;3.40;99.90
46652;DHT22;32377;52.182;5.398;2023-03-05T07:06:02;3.50;99.90
46652;DHT22;32377;52.182;5.398;2023-03-05T07:08:27;3.50;99.90
46652;DHT22;32377;52.182;5.398;2023-03-05T07:10:53;3.60;99.90
46652;DHT22;32377;52.182;5.398;2023-03-05T07:13:18;3.60;99.90
46652;DHT22;32377;52.182;5.398;2023-03-05T07:15:44;3.70;99.90
46652;DHT22;32377;52.182;5.398;2023-03-05T07:18:10;3.80;99.90
46652;DHT22;32377;52.182;5.398;2023-03-05T07:20:36;3.80;99.90
46652;DHT22;32377;52.182;5.398;2023-03-05T07:23:02;3.90;99.90
46652;DHT22;32377;52.182;5.398;2023-03-05T07:25:27;3.90;99.90
46652;DHT22;32377;52.182;5.398;2023-03-05T07:27:53;3.90;99.90
46652;DHT22;32377;52.182;5.398;2023-03-05T07:30:19;3.90;99.90
46652;DHT22;32377;52.182;5.398;2023-03-05T07:32:44;3.90;99.90
46652;DHT22;32377;52.182;5.398;2023-03-05T07:35:10;4.00;99.90
46652;DHT22;32377;52.182;5.398;2023-03-05T07:37:35;4.00;99.90
46652;DHT22;32377;52.182;5.398;2023-03-05T07:40:01;4.00;99.90
46652;DHT22;32377;52.182;5.398;2023-03-05T07:42:29;4.10;99.90
46652;DHT22;32377;52.182;5.398;2023-03-05T07:44:54;4.10;99.90
46652;DHT22;32377;52.182;5.398;2023-03-05T07:47:20;4.10;99.90
46652;DHT22;32377;52.182;5.398;2023-03-05T07:49:47;4.10;99.90
46652;DHT22;32377;52.182;5.398;2023-03-05T07:52:13;4.20;99.90
46652;DHT22;32377;52.182;5.398;2023-03-05T07:54:39;4.20;99.90
46652;DHT22;32377;52.182;5.398;2023-03-05T07:57:06;4.20;99.90
46652;DHT22;32377;52.182;5.398;2023-03-05T07:59:32;4.30;99.90
46652;DHT22;32377;52.182;5.398;2023-03-05T08:01:58;4.30;99.90
46652;DHT22;32377;52.182;5.398;2023-03-05T08:04:24;4.40;99.90
46652;DHT22;32377;52.182;5.398;2023-03-05T08:06:49;4.50;99.90
46652;DHT22;32377;52.182;5.398;2023-03-05T08:09:16;4.60;99.90
46652;DHT22;32377;52.182;5.398;2023-03-05T08:11:42;4.50;99.90
46652;DHT22;32377;52.182;5.398;2023-03-05T08:14:08;4.60;99.90
46652;DHT22;32377;52.182;5.398;2023-03-05T08:16:34;4.50;99.90
46652;DHT22;32377;52.182;5.398;2023-03-05T08:19:00;4.40;99.90
46652;DHT22;32377;52.182;5.398;2023-03-05T08:21:28;4.50;99.90
46652;DHT22;32377;52.182;5.398;2023-03-05T08:23:57;4.50;99.90
46652;DHT22;32377;52.182;5.398;2023-03-05T08:26:25;4.60;99.90
46652;DHT22;32377;52.182;5.398;2023-03-05T08:28:51;4.60;99.90
46652;DHT22;32377;52.182;5.398;2023-03-05T08:31:19;4.80;99.90
46652;DHT22;32377;52.182;5.398;2023-03-05T08:33:46;5.00;99.90
46652;DHT22;32377;52.182;5.398;2023-03-05T08:36:12;5.10;99.90
46652;DHT22;32377;52.182;5.398;2023-03-05T08:38:40;5.20;99.90
46652;DHT22;32377;52.182;5.398;2023-03-05T08:41:07;5.30;99.90
46652;DHT22;32377;52.182;5.398;2023-03-05T08:43:33;5.40;99.90
46652;DHT22;32377;52.182;5.398;2023-03-05T08:45:59;5.40;99.90
46652;DHT22;32377;52.182;5.398;2023-03-05T08:48:25;5.40;99.90
46652;DHT22;32377;52.182;5.398;2023-03-05T08:50:51;5.50;99.90
46652;DHT22;32377;52.182;5.398;2023-03-05T08:53:17;5.50;99.90
46652;DHT22;32377;52.182;5.398;2023-03-05T08:55:43;5.50;99.90
46652;DHT22;32377;52.182;5.398;2023-03-05T08:58:09;5.60;99.90
46652;DHT22;32377;52.182;5.398;2023-03-05T09:00:34;5.50;99.90
46652;DHT22;32377;52.182;5.398;2023-03-05T09:03:00;5.60;99.90
46652;DHT22;32377;52.182;5.398;2023-03-05T09:05:25;5.70;99.90
46652;DHT22;32377;52.182;5.398;2023-03-05T09:07:51;5.60;99.90
46652;DHT22;32377;52.182;5.398;2023-03-05T09:10:17;5.40;99.90
46652;DHT22;32377;52.182;5.398;2023-03-05T09:12:43;5.50;99.90
46652;DHT22;32377;52.182;5.398;2023-03-05T09:15:10;5.50;99.90
46652;DHT22;32377;52.182;5.398;2023-03-05T09:17:37;5.40;99.90
46652;DHT22;32377;52.182;5.398;2023-03-05T09:20:04;5.60;99.90
46652;DHT22;32377;52.182;5.398;2023-03-05T09:22:31;5.60;99.90
46652;DHT22;32377;52.182;5.398;2023-03-05T09:24:56;5.70;99.90
46652;DHT22;32377;52.182;5.398;2023-03-05T09:27:22;5.50;99.90
46652;DHT22;32377;52.182;5.398;2023-03-05T09:29:48;5.50;99.90
46652;DHT22;32377;52.182;5.398;2023-03-05T09:32:14;5.50;99.90
46652;DHT22;32377;52.182;5.398;2023-03-05T09:34:40;5.50;99.90
46652;DHT22;32377;52.182;5.398;2023-03-05T09:37:07;5.60;99.90
46652;DHT22;32377;52.182;5.398;2023-03-05T09:39:33;5.60;99.90
46652;DHT22;32377;52.182;5.398;2023-03-05T09:47:33;5.80;99.90
46652;DHT22;32377;52.182;5.398;2023-03-05T09:50:17;5.90;99.90
46652;DHT22;32377;52.182;5.398;2023-03-05T09:56:18;5.90;99.90
46652;DHT22;32377;52.182;5.398;2023-03-05T10:01:23;5.90;99.90
46652;DHT22;32377;52.182;5.398;2023-03-05T10:06:37;5.90;99.90
46652;DHT22;32377;52.182;5.398;2023-03-05T10:09:13;5.90;99.90
46652;DHT22;32377;52.182;5.398;2023-03-05T10:11:55;5.90;99.90
46652;DHT22;32377;52.182;5.398;2023-03-05T10:17:49;6.10;99.90
46652;DHT22;32377;52.182;5.398;2023-03-05T10:23:45;6.20;99.90
46652;DHT22;32377;52.182;5.398;2023-03-05T10:34:57;6.20;99.90
46652;DHT22;32377;52.182;5.398;2023-03-05T10:37:44;6.30;99.90
46652;DHT22;32377;52.182;5.398;2023-03-05T10:40:26;6.40;99.90
46652;DHT22;32377;52.182;5.398;2023-03-05T10:43:11;6.40;99.90
46652;DHT22;32377;52.182;5.398;2023-03-05T10:45:41;6.50;99.90
46652;DHT22;32377;52.182;5.398;2023-03-05T10:53:55;6.40;99.90
46652;DHT22;32377;52.182;5.398;2023-03-05T10:59:09;6.50;99.90
46652;DHT22;32377;52.182;5.398;2023-03-05T11:01:34;6.50;99.90
46652;DHT22;32377;52.182;5.398;2023-03-05T11:04:06;6.50;99.90
46652;DHT22;32377;52.182;5.398;2023-03-05T11:06:35;6.60;99.90
46652;DHT22;32377;52.182;5.398;2023-03-05T11:09:29;6.60;99.90
46652;DHT22;32377;52.182;5.398;2023-03-05T11:12:16;6.60;99.90
46652;DHT22;32377;52.182;5.398;2023-03-05T11:25:48;6.80;99.90
46652;DHT22;32377;52.182;5.398;2023-03-05T11:28:20;6.90;99.90
46652;DHT22;32377;52.182;5.398;2023-03-05T11:33:34;7.00;99.90
46652;DHT22;32377;52.182;5.398;2023-03-05T11:36:33;7.10;99.90
46652;DHT22;32377;52.182;5.398;2023-03-05T11:42:02;7.00;99.90
46652;DHT22;32377;52.182;5.398;2023-03-05T11:44:48;7.00;99.90
46652;DHT22;32377;52.182;5.398;2023-03-05T11:47:38;7.20;99.90
46652;DHT22;32377;52.182;5.398;2023-03-05T11:50:29;7.10;99.90
46652;DHT22;32377;52.182;5.398;2023-03-05T11:55:43;7.20;99.90
46652;DHT22;32377;52.182;5.398;2023-03-05T12:00:57;7.40;99.90
46652;DHT22;32377;52.182;5.398;2023-03-05T12:03:31;7.40;99.90
46652;DHT22;32377;52.182;5.398;2023-03-05T12:06:03;7.30;99.90
46652;DHT22;32377;52.182;5.398;2023-03-05T12:08:33;7.50;99.90
46652;DHT22;32377;52.182;5.398;2023-03-05T12:11:05;7.40;99.90
46652;DHT22;32377;52.182;5.398;2023-03-05T12:13:34;7.40;99.90
46652;DHT22;32377;52.182;5.398;2023-03-05T12:16:27;7.30;99.90
46652;DHT22;32377;52.182;5.398;2023-03-05T12:21:36;7.30;99.90
46652;DHT22;32377;52.182;5.398;2023-03-05T12:29:49;7.60;99.90
46652;DHT22;32377;52.182;5.398;2023-03-05T12:34:49;7.50;99.90
46652;DHT22;32377;52.182;5.398;2023-03-05T12:43:00;7.50;99.90
46652;DHT22;32377;52.182;5.398;2023-03-05T12:45:40;7.50;99.90
46652;DHT22;32377;52.182;5.398;2023-03-05T12:53:14;7.50;99.90
46652;DHT22;32377;52.182;5.398;2023-03-05T13:00:45;7.40;99.90
46652;DHT22;32377;52.182;5.398;2023-03-05T13:06:23;7.50;99.90
46652;DHT22;32377;52.182;5.398;2023-03-05T13:09:07;7.60;99.90
46652;DHT22;32377;52.182;5.398;2023-03-05T13:11:36;7.70;99.90
46652;DHT22;32377;52.182;5.398;2023-03-05T13:14:03;7.70;99.90
46652;DHT22;32377;52.182;5.398;2023-03-05T13:16:36;7.60;99.90
46652;DHT22;32377;52.182;5.398;2023-03-05T13:19:02;7.50;99.90
46652;DHT22;32377;52.182;5.398;2023-03-05T13:21:31;7.50;99.90
46652;DHT22;32377;52.182;5.398;2023-03-05T13:23:59;7.50;99.90
46652;DHT22;32377;52.182;5.398;2023-03-05T13:26:26;7.40;99.90
46652;DHT22;32377;52.182;5.398;2023-03-05T13:29:25;7.50;99.90
46652;DHT22;32377;52.182;5.398;2023-03-05T13:32:02;7.40;99.90
46652;DHT22;32377;52.182;5.398;2023-03-05T13:34:33;7.40;99.90
46652;DHT22;32377;52.182;5.398;2023-03-05T13:37:05;7.40;99.90
46652;DHT22;32377;52.182;5.398;2023-03-05T13:39:45;7.40;99.90
46652;DHT22;32377;52.182;5.398;2023-03-05T13:42:17;7.30;99.90
46652;DHT22;32377;52.182;5.398;2023-03-05T13:44:56;7.30;99.90
46652;DHT22;32377;52.182;5.398;2023-03-05T13:47:23;7.40;99.90
46652;DHT22;32377;52.182;5.398;2023-03-05T13:49:57;7.30;99.90
46652;DHT22;32377;52.182;5.398;2023-03-05T13:52:29;7.40;99.90
46652;DHT22;32377;52.182;5.398;2023-03-05T13:54:57;7.30;99.90
46652;DHT22;32377;52.182;5.398;2023-03-05T13:57:50;7.20;99.90
46652;DHT22;32377;52.182;5.398;2023-03-05T14:00:34;7.20;99.90
46652;DHT22;32377;52.182;5.398;2023-03-05T14:03:08;7.10;99.90
46652;DHT22;32377;52.182;5.398;2023-03-05T14:05:34;7.10;99.90
46652;DHT22;32377;52.182;5.398;2023-03-05T14:08:00;7.00;99.90
46652;DHT22;32377;52.182;5.398;2023-03-05T14:10:35;6.90;99.90
46652;DHT22;32377;52.182;5.398;2023-03-05T14:13:16;6.90;99.90
46652;DHT22;32377;52.182;5.398;2023-03-05T14:15:42;6.90;99.90
46652;DHT22;32377;52.182;5.398;2023-03-05T14:18:16;6.90;99.90
46652;DHT22;32377;52.182;5.398;2023-03-05T14:21:02;6.90;99.90
46652;DHT22;32377;52.182;5.398;2023-03-05T14:26:22;6.80;99.90
46652;DHT22;32377;52.182;5.398;2023-03-05T14:28:55;6.70;99.90
46652;DHT22;32377;52.182;5.398;2023-03-05T14:31:21;6.80;99.90
46652;DHT22;32377;52.182;5.398;2023-03-05T14:33:49;6.70;99.90
46652;DHT22;32377;52.182;5.398;2023-03-05T14:36:22;6.60;99.90
46652;DHT22;32377;52.182;5.398;2023-03-05T14:38:48;6.60;99.90
46652;DHT22;32377;52.182;5.398;2023-03-05T14:41:38;6.60;99.90
46652;DHT22;32377;52.182;5.398;2023-03-05T14:44:12;6.60;99.90
46652;DHT22;32377;52.182;5.398;2023-03-05T14:46:39;6.60;99.90
46652;DHT22;32377;52.182;5.398;2023-03-05T14:49:04;6.60;99.90
46652;DHT22;32377;52.182;5.398;2023-03-05T14:51:34;6.50;99.90
46652;DHT22;32377;52.182;5.398;2023-03-05T14:54:00;6.50;99.90
46652;DHT22;32377;52.182;5.398;2023-03-05T14:56:27;6.50;99.90
46652;DHT22;32377;52.182;5.398;2023-03-05T14:58:53;6.50;99.90
46652;DHT22;32377;52.182;5.398;2023-03-05T15:01:19;6.50;99.90
46652;DHT22;32377;52.182;5.398;2023-03-05T15:03:45;6.60;99.90
46652;DHT22;32377;52.182;5.398;2023-03-05T15:06:20;6.70;99.90
46652;DHT22;32377;52.182;5.398;2023-03-05T15:08:47;6.70;99.90
46652;DHT22;32377;52.182;5.398;2023-03-05T15:11:13;6.70;99.90
46652;DHT22;32377;52.182;5.398;2023-03-05T15:13:39;6.80;99.90
46652;DHT22;32377;52.182;5.398;2023-03-05T15:16:05;6.70;99.90
46652;DHT22;32377;52.182;5.398;2023-03-05T15:18:32;6.70;99.90
46652;DHT22;32377;52.182;5.398;2023-03-05T15:20:57;6.70;99.90
46652;DHT22;32377;52.182;5.398;2023-03-05T15:23:23;6.70;99.90
46652;DHT22;32377;52.182;5.398;2023-03-05T15:25:49;6.70;99.90
46652;DHT22;32377;52.182;5.398;2023-03-05T15:28:15;6.70;99.90
46652;DHT22;32377;52.182;5.398;2023-03-05T15:30:45;6.80;99.90
46652;DHT22;32377;52.182;5.398;2023-03-05T15:33:16;6.70;99.90
46652;DHT22;32377;52.182;5.398;2023-03-05T15:35:41;6.70;99.90
46652;DHT22;32377;52.182;5.398;2023-03-05T15:38:07;6.70;99.90
46652;DHT22;32377;52.182;5.398;2023-03-05T15:40:33;6.60;99.90
46652;DHT22;32377;52.182;5.398;2023-03-05T15:42:59;6.60;99.90
46652;DHT22;32377;52.182;5.398;2023-03-05T15:45:25;6.60;99.90
46652;DHT22;32377;52.182;5.398;2023-03-05T15:47:52;6.50;99.90
46652;DHT22;32377;52.182;5.398;2023-03-05T15:50:21;6.50;99.90
46652;DHT22;32377;52.182;5.398;2023-03-05T15:52:47;6.50;99.90
46652;DHT22;32377;52.182;5.398;2023-03-05T15:55:13;6.50;99.90
46652;DHT22;32377;52.182;5.398;2023-03-05T15:57:44;6.40;99.90
46652;DHT22;32377;52.182;5.398;2023-03-05T16:00:10;6.40;99.90
46652;DHT22;32377;52.182;5.398;2023-03-05T16:02:36;6.40;99.90
46652;DHT22;32377;52.182;5.398;2023-03-05T16:05:02;6.40;99.90
46652;DHT22;32377;52.182;5.398;2023-03-05T16:07:28;6.40;99.90
46652;DHT22;32377;52.182;5.398;2023-03-05T16:09:55;6.40;99.90
46652;DHT22;32377;52.182;5.398;2023-03-05T16:12:24;6.40;99.90
46652;DHT22;32377;52.182;5.398;2023-03-05T16:14:50;6.40;99.90
46652;DHT22;32377;52.182;5.398;2023-03-05T16:17:18;6.40;99.90
46652;DHT22;32377;52.182;5.398;2023-03-05T16:19:47;6.40;99.90
46652;DHT22;32377;52.182;5.398;2023-03-05T16:22:13;6.40;99.90
46652;DHT22;32377;52.182;5.398;2023-03-05T16:24:39;6.40;99.90
46652;DHT22;32377;52.182;5.398;2023-03-05T16:27:05;6.40;99.90
46652;DHT22;32377;52.182;5.398;2023-03-05T16:29:31;6.30;99.90
46652;DHT22;32377;52.182;5.398;2023-03-05T16:32:00;6.40;99.90
46652;DHT22;32377;52.182;5.398;2023-03-05T16:34:26;6.40;99.90
46652;DHT22;32377;52.182;5.398;2023-03-05T16:36:52;6.40;99.90
46652;DHT22;32377;52.182;5.398;2023-03-05T16:39:19;6.40;99.90
46652;DHT22;32377;52.182;5.398;2023-03-05T16:41:45;6.30;99.90
46652;DHT22;32377;52.182;5.398;2023-03-05T16:44:10;6.30;99.90
46652;DHT22;32377;52.182;5.398;2023-03-05T16:46:36;6.30;99.90
46652;DHT22;32377;52.182;5.398;2023-03-05T16:49:03;6.20;99.90
46652;DHT22;32377;52.182;5.398;2023-03-05T16:51:29;6.20;99.90
46652;DHT22;32377;52.182;5.398;2023-03-05T16:53:54;6.20;99.90
46652;DHT22;32377;52.182;5.398;2023-03-05T16:59:10;6.10;99.90
46652;DHT22;32377;52.182;5.398;2023-03-05T17:01:36;6.10;99.90
46652;DHT22;32377;52.182;5.398;2023-03-05T17:04:01;6.10;99.90
46652;DHT22;32377;52.182;5.398;2023-03-05T17:06:29;6.10;99.90
46652;DHT22;32377;52.182;5.398;2023-03-05T17:08:56;6.10;99.90
46652;DHT22;32377;52.182;5.398;2023-03-05T17:11:21;6.00;99.90
46652;DHT22;32377;52.182;5.398;2023-03-05T17:13:49;6.00;99.90
46652;DHT22;32377;52.182;5.398;2023-03-05T17:16:16;6.00;99.90
46652;DHT22;32377;52.182;5.398;2023-03-05T17:18:42;6.00;99.90
46652;DHT22;32377;52.182;5.398;2023-03-05T17:21:09;6.00;99.90
46652;DHT22;32377;52.182;5.398;2023-03-05T17:23:35;5.90;99.90
46652;DHT22;32377;52.182;5.398;2023-03-05T17:26:07;5.90;99.90
46652;DHT22;32377;52.182;5.398;2023-03-05T17:28:33;5.90;99.90
46652;DHT22;32377;52.182;5.398;2023-03-05T17:30:59;5.90;99.90